• Join FlightAware (Why Join?)
  • Login
  • US Flag 
06:54PM EST


 

Airport Tracker/Info


-or-


 

Live Flight TrackerFlight Track Log ✈ N589H ✈ 26-Feb-2014 ✈ KSHV - KTCC

Flight Track Log - Related Links

Times and Time Zones

All times are in EST time to prevent confusion due to time zone crossing. See the N589H flight status page for this flight to view local times or setup timezone preferences in your user account.

Time Position Orientation Groundspeed Altitude Reporting Facility
EST Latitude Longitude Course Direction KTS MPH feet Rate Location/Type
01:26PM 32.4589 -93.8386 336° Northwest 153 176 1,000  Level Fort Worth Center
01:27PM 32.4942 -93.8703 323° Northwest 167 192 3,100 2,040 Climbing Fort Worth Center
01:27PM 32.5022 -93.8722 348° North 163 188 3,400 1,920 Climbing Fort Worth Center
01:28PM 32.5206 -93.9275 291° West 212 244 5,100 1,920 Climbing Fort Worth Center
01:28PM 32.5242 -93.9344 302° West 204 235 5,400 1,860 Climbing Fort Worth Center
01:29PM 32.5408 -93.9900 290° West 210 242 7,000 1,800 Climbing Fort Worth Center
01:29PM 32.5456 -94.0022 295° West 204 235 7,300 1,920 Climbing Fort Worth Center
01:30PM 32.5656 -94.0656 291° West 206 237 9,400 1,920 Climbing Fort Worth Center
01:31PM 32.5853 -94.1281 291° West 190 219 11,300 1,740 Climbing Fort Worth Center
01:32PM 32.6058 -94.1886 292° West 194 223 13,000 1,740 Climbing Fort Worth Center
01:33PM 32.6278 -94.2586 290° West 204 235 15,000 1,740 Climbing Fort Worth Center
01:34PM 32.6475 -94.3231 290° West 207 238 16,700 1,500 Climbing Fort Worth Center
01:35PM 32.6708 -94.3953 291° West 215 247 18,200 1,440 Climbing Fort Worth Center
01:36PM 32.6906 -94.4561 291° West 218 251 19,700 1,380 Climbing Fort Worth Center
01:37PM 32.7114 -94.5225 290° West 217 250 21,100 1,440 Climbing Fort Worth Center
01:38PM 32.7328 -94.5875 291° West 214 246 22,700 1,200 Climbing Fort Worth Center
01:39PM 32.7572 -94.6681 290° West 218 251 23,600 960 Climbing Fort Worth Center
01:40PM 32.7797 -94.7386 291° West 226 260 24,700 960 Climbing Fort Worth Center
01:41PM 32.8011 -94.8092 290° West 229 264 25,600 780 Climbing Fort Worth Center
01:42PM 32.8233 -94.8797 291° West 228 262 26,400 780 Climbing Fort Worth Center
01:43PM 32.8472 -94.9522 291° West 231 266 27,300 720 Climbing Fort Worth Center
01:44PM 32.8694 -95.0247 290° West 233 268 28,000 300 Climbing Fort Worth Center
01:45PM 32.8972 -95.1153 290° West 240 276 28,000  Level Fort Worth Center
01:46PM 32.9217 -95.1958 290° West 256 295 28,000  Level Fort Worth Center
01:47PM 32.9481 -95.2792 291° West 263 303 28,000  Level Fort Worth Center
01:48PM 32.9769 -95.3733 290° West 268 308 28,000  Level Fort Worth Center
01:50PM 33.0039 -95.4567 291° West 269 310 28,000  Level Fort Worth Center
01:51PM 33.0272 -95.5319 290° West 271 312 28,000  Level Fort Worth Center
01:52PM 33.0553 -95.6275 289° West 273 314 28,000  Level Fort Worth Center
01:53PM 33.0828 -95.7142 291° West 279 321 28,000  Level Fort Worth Center
01:54PM 33.1083 -95.8022 289° West 279 321 28,000  Level Fort Worth Center
01:55PM 33.1417 -95.9089 290° West 283 326 28,000  Level Fort Worth Center
01:56PM 33.1678 -95.9981 289° West 284 327 28,000  Level Fort Worth Center
01:57PM 33.1947 -96.0881 290° West 287 330 28,000  Level Fort Worth Center
01:58PM 33.2222 -96.1778 290° West 288 331 28,000  Level Fort Worth Center
01:59PM 33.2506 -96.2681 291° West 289 333 28,000  Level Fort Worth Center
02:00PM 33.2822 -96.3769 289° West 290 334 28,000  Level Fort Worth Center
02:01PM 33.3094 -96.4686 290° West 290 334 28,000  Level Fort Worth Center
02:02PM 33.3367 -96.5594 290° West 291 335 28,000  Level Fort Worth Center
02:03PM 33.3633 -96.6514 289° West 292 336 28,000  Level Fort Worth Center
02:04PM 33.3917 -96.7436 290° West 293 337 28,000  Level Fort Worth Center
02:05PM 33.4247 -96.8547 290° West 295 339 28,000  Level Fort Worth Center
02:06PM 33.4514 -96.9475 289° West 295 339 28,000  Level Fort Worth Center
02:07PM 33.4794 -97.0397 290° West 295 339 28,000  Level Fort Worth Center
02:08PM 33.5058 -97.1336 289° West 295 339 28,000  Level Fort Worth Center
02:09PM 33.5325 -97.2286 289° West 299 344 28,000  Level Fort Worth Center
02:10PM 33.5603 -97.3239 289° West 302 348 28,000  Level Fort Worth Center
02:11PM 33.5928 -97.4364 289° West 302 348 28,000  Level Fort Worth Center
02:12PM 33.6208 -97.5314 290° West 302 348 28,000  Level Fort Worth Center
02:13PM 33.6503 -97.6358 289° West 303 349 28,000  Level Fort Worth Center
02:14PM 33.6758 -97.7225 290° West 303 349 28,000  Level Fort Worth Center
02:15PM 33.7022 -97.8186 288° West 303 349 28,000  Level Fort Worth Center
02:16PM 33.7356 -97.9328 289° West 304 350 28,000  Level Fort Worth Center
02:17PM 33.7631 -98.0292 289° West 305 351 28,000  Level Fort Worth Center
02:18PM 33.7908 -98.1289 289° West 315 362 28,000  Level Fort Worth Center
02:20PM 33.8189 -98.2283 289° West 315 362 28,000  Level Fort Worth Center
02:21PM 33.8458 -98.3264 288° West 314 361 28,000  Level Fort Worth Center
02:22PM 33.8794 -98.4467 289° West 314 361 28,000  Level Fort Worth Center
02:23PM 33.9069 -98.5497 288° West 321 369 28,000  Level Fort Worth Center
02:24PM 33.9378 -98.6594 289° West 322 371 28,000  Level Fort Worth Center
02:25PM 33.9636 -98.7531 288° West 322 371 28,000  Level Fort Worth Center
02:26PM 33.9919 -98.8569 288° West 326 375 28,000  Level Fort Worth Center
02:27PM 34.0206 -98.9611 288° West 326 375 28,000  Level Fort Worth Center
02:28PM 34.0539 -99.0844 288° West 326 375 28,000  Level Fort Worth Center
02:29PM 34.0817 -99.1842 289° West 335 386 28,000  Level Fort Worth Center
02:30PM 34.1094 -99.2867 288° West 331 381 28,000  Level Fort Worth Center
02:31PM 34.1372 -99.3903 288° West 326 375 28,000  Level Fort Worth Center
02:32PM 34.1708 -99.5147 288° West 326 375 28,000  Level Fort Worth Center
02:33PM 34.1986 -99.6181 288° West 326 375 28,000  Level Fort Worth Center
02:34PM 34.2264 -99.7225 288° West 326 375 28,000  Level Fort Worth Center
02:35PM 34.2542 -99.8267 288° West 326 375 28,000  Level Fort Worth Center
02:36PM 34.2811 -99.9306 287° West 326 375 28,000  Level Fort Worth Center
02:37PM 34.3139 -100.0581 287° West 326 375 28,000  Level Fort Worth Center
02:38PM 34.3389 -100.1519 288° West 326 375 28,000  Level Fort Worth Center
02:39PM 34.3664 -100.2561 288° West 326 375 28,000  Level Fort Worth Center
02:40PM 34.4000 -100.3808 288° West 326 375 28,000  Level Fort Worth Center
02:41PM 34.4258 -100.4864 287° West 326 375 28,000  Level Fort Worth Center
02:42PM 34.4550 -100.5897 289° West 326 375 28,000  Level Albuquerque Center
02:43PM 34.4814 -100.6947 287° West 327 376 28,000  Level Albuquerque Center
02:44PM 34.5133 -100.8211 287° West 327 376 28,000  Level Albuquerque Center
02:45PM 34.5400 -100.9267 287° West 327 376 28,000  Level Albuquerque Center
02:46PM 34.5667 -101.0322 287° West 328 377 28,000  Level Albuquerque Center
02:48PM 34.5931 -101.1375 287° West 327 376 28,000  Level Albuquerque Center
02:49PM 34.6203 -101.2431 287° West 327 376 28,000  Level Albuquerque Center
02:50PM 34.6464 -101.3486 287° West 327 376 28,000  Level Albuquerque Center
02:51PM 34.6717 -101.4578 286° West 333 383 28,000  Level Albuquerque Center
02:52PM 34.7036 -101.5844 287° West 329 379 28,000  Level Albuquerque Center
02:53PM 34.7308 -101.6900 287° West 327 376 28,000 -240 Level Albuquerque Center
02:54PM 34.7569 -101.7983 286° West 330 380 27,600 -600 Descending Albuquerque Center
02:55PM 34.7842 -101.9119 286° West 341 392 26,800 -840 Descending Albuquerque Center
02:56PM 34.8119 -102.0247 287° West 346 398 25,900 -840 Descending Albuquerque Center
02:57PM 34.8394 -102.1383 286° West 348 400 25,100 -900 Descending Albuquerque Center
02:58PM 34.8661 -102.2500 286° West 345 397 24,100 -1,260 Descending Albuquerque Center
02:59PM 34.8969 -102.3828 286° West 341 392 22,600 -1,560 Descending Albuquerque Center
03:00PM 34.9231 -102.4872 287° West 332 382 21,000 -1,560 Descending Albuquerque Center
03:01PM 34.9483 -102.5892 287° West 321 369 19,400 -1,560 Descending Albuquerque Center
03:02PM 34.9708 -102.6883 286° West 312 359 17,800 -1,500 Descending Albuquerque Center
03:03PM 34.9947 -102.7889 286° West 308 354 16,300 -1,680 Descending Albuquerque Center
03:04PM 35.0236 -102.9044 287° West 303 349 14,400 -1,740 Descending Albuquerque Center
03:05PM 35.0467 -103.0022 286° West 300 345 12,800 -1,560 Descending Albuquerque Center
03:06PM 35.0678 -103.0986 285° West 295 339 11,200 -1,560 Descending Albuquerque Center
03:07PM 35.0906 -103.1950 286° West 293 337 9,600 -1,500 Descending Albuquerque Center
03:08PM 35.1111 -103.2886 285° West 289 333 8,100 -780 Descending Albuquerque Center
03:09PM 35.1306 -103.3689 287° West 260 299 8,000 -60 Descending Albuquerque Center
03:10PM 35.1469 -103.4403 286° West 229 264 8,000  Level Albuquerque Center
03:11PM 35.1622 -103.5100 285° West 216 249 8,000  Level Albuquerque Center